sensor_id;sensor_type;location;lat;lon;timestamp;temperature;humidity
14735;DHT22;7458;49.002;8.472;2023-02-01T00:00:14;6.40;99.90
14735;DHT22;7458;49.002;8.472;2023-02-01T00:02:39;6.40;99.90
14735;DHT22;7458;49.002;8.472;2023-02-01T00:05:10;6.40;99.90
14735;DHT22;7458;49.002;8.472;2023-02-01T00:07:36;6.40;99.90
14735;DHT22;7458;49.002;8.472;2023-02-01T00:10:04;6.30;99.90
14735;DHT22;7458;49.002;8.472;2023-02-01T00:12:31;6.30;99.90
14735;DHT22;7458;49.002;8.472;2023-02-01T00:14:57;6.30;99.90
14735;DHT22;7458;49.002;8.472;2023-02-01T00:17:23;6.30;99.90
14735;DHT22;7458;49.002;8.472;2023-02-01T00:19:49;6.40;99.90
14735;DHT22;7458;49.002;8.472;2023-02-01T00:22:15;6.40;99.90
14735;DHT22;7458;49.002;8.472;2023-02-01T00:24:42;6.40;99.90
14735;DHT22;7458;49.002;8.472;2023-02-01T00:27:08;6.50;99.90
14735;DHT22;7458;49.002;8.472;2023-02-01T00:29:34;6.50;99.90
14735;DHT22;7458;49.002;8.472;2023-02-01T00:31:59;6.50;99.90
14735;DHT22;7458;49.002;8.472;2023-02-01T00:34:25;6.50;99.90
14735;DHT22;7458;49.002;8.472;2023-02-01T00:36:51;6.50;99.90
14735;DHT22;7458;49.002;8.472;2023-02-01T00:39:17;6.50;99.90
14735;DHT22;7458;49.002;8.472;2023-02-01T00:41:43;6.50;99.90
14735;DHT22;7458;49.002;8.472;2023-02-01T00:44:09;6.50;99.90
14735;DHT22;7458;49.002;8.472;2023-02-01T00:46:35;6.40;99.90
14735;DHT22;7458;49.002;8.472;2023-02-01T00:49:01;6.40;99.90
14735;DHT22;7458;49.002;8.472;2023-02-01T00:51:28;6.40;99.90
14735;DHT22;7458;49.002;8.472;2023-02-01T00:53:55;6.40;99.90
14735;DHT22;7458;49.002;8.472;2023-02-01T00:56:22;6.50;99.90
14735;DHT22;7458;49.002;8.472;2023-02-01T00:58:48;6.40;99.90
14735;DHT22;7458;49.002;8.472;2023-02-01T01:01:17;6.50;99.90
14735;DHT22;7458;49.002;8.472;2023-02-01T01:03:50;6.60;99.90
14735;DHT22;7458;49.002;8.472;2023-02-01T01:06:24;6.50;99.90
14735;DHT22;7458;49.002;8.472;2023-02-01T01:08:54;6.40;99.90
14735;DHT22;7458;49.002;8.472;2023-02-01T01:11:30;6.40;99.90
14735;DHT22;7458;49.002;8.472;2023-02-01T01:13:57;6.40;99.90
14735;DHT22;7458;49.002;8.472;2023-02-01T01:16:26;6.30;99.90
14735;DHT22;7458;49.002;8.472;2023-02-01T01:18:54;6.30;99.90
14735;DHT22;7458;49.002;8.472;2023-02-01T01:21:21;6.30;99.90
14735;DHT22;7458;49.002;8.472;2023-02-01T01:23:49;6.30;99.90
14735;DHT22;7458;49.002;8.472;2023-02-01T01:26:22;6.30;99.90
14735;DHT22;7458;49.002;8.472;2023-02-01T01:28:51;6.30;99.90
14735;DHT22;7458;49.002;8.472;2023-02-01T01:31:18;6.30;99.90
14735;DHT22;7458;49.002;8.472;2023-02-01T01:33:51;6.20;99.90
14735;DHT22;7458;49.002;8.472;2023-02-01T01:36:19;6.30;99.90
14735;DHT22;7458;49.002;8.472;2023-02-01T01:38:45;6.30;99.90
14735;DHT22;7458;49.002;8.472;2023-02-01T01:41:15;6.30;99.90
14735;DHT22;7458;49.002;8.472;2023-02-01T01:44:03;6.30;99.90
14735;DHT22;7458;49.002;8.472;2023-02-01T01:46:37;6.40;99.90
14735;DHT22;7458;49.002;8.472;2023-02-01T01:51:46;6.30;99.90
14735;DHT22;7458;49.002;8.472;2023-02-01T01:54:19;6.30;99.90
14735;DHT22;7458;49.002;8.472;2023-02-01T01:56:59;6.40;99.90
14735;DHT22;7458;49.002;8.472;2023-02-01T01:59:31;6.40;99.90
14735;DHT22;7458;49.002;8.472;2023-02-01T02:02:01;6.40;99.90
14735;DHT22;7458;49.002;8.472;2023-02-01T02:04:27;6.40;99.90
14735;DHT22;7458;49.002;8.472;2023-02-01T02:06:59;6.40;99.90
14735;DHT22;7458;49.002;8.472;2023-02-01T02:09:35;6.40;99.90
14735;DHT22;7458;49.002;8.472;2023-02-01T02:12:01;6.40;99.90
14735;DHT22;7458;49.002;8.472;2023-02-01T02:14:27;6.40;99.90
14735;DHT22;7458;49.002;8.472;2023-02-01T02:22:39;6.40;99.90
14735;DHT22;7458;49.002;8.472;2023-02-01T02:31:25;6.40;99.90
14735;DHT22;7458;49.002;8.472;2023-02-01T02:39:59;6.40;99.90
14735;DHT22;7458;49.002;8.472;2023-02-01T02:42:43;6.50;99.90
14735;DHT22;7458;49.002;8.472;2023-02-01T02:45:59;6.50;99.90
14735;DHT22;7458;49.002;8.472;2023-02-01T02:54:40;6.50;99.90
14735;DHT22;7458;49.002;8.472;2023-02-01T02:57:30;6.50;99.90
14735;DHT22;7458;49.002;8.472;2023-02-01T03:00:27;6.50;99.90
14735;DHT22;7458;49.002;8.472;2023-02-01T03:03:13;6.50;99.90
14735;DHT22;7458;49.002;8.472;2023-02-01T03:05:57;6.50;99.90
14735;DHT22;7458;49.002;8.472;2023-02-01T03:08:28;6.50;99.90
14735;DHT22;7458;49.002;8.472;2023-02-01T03:11:07;6.50;99.90
14735;DHT22;7458;49.002;8.472;2023-02-01T03:13:53;6.50;99.90
14735;DHT22;7458;49.002;8.472;2023-02-01T03:16:25;6.50;99.90
14735;DHT22;7458;49.002;8.472;2023-02-01T03:21:55;6.40;99.90
14735;DHT22;7458;49.002;8.472;2023-02-01T03:24:30;6.30;99.90
14735;DHT22;7458;49.002;8.472;2023-02-01T03:30:19;6.20;99.90
14735;DHT22;7458;49.002;8.472;2023-02-01T03:32:51;6.30;99.90
14735;DHT22;7458;49.002;8.472;2023-02-01T03:35:43;6.20;99.90
14735;DHT22;7458;49.002;8.472;2023-02-01T03:38:29;6.30;99.90
14735;DHT22;7458;49.002;8.472;2023-02-01T03:43:56;6.30;99.90
14735;DHT22;7458;49.002;8.472;2023-02-01T03:46:37;6.40;99.90
14735;DHT22;7458;49.002;8.472;2023-02-01T03:49:12;6.40;99.90
14735;DHT22;7458;49.002;8.472;2023-02-01T03:51:41;6.40;99.90
14735;DHT22;7458;49.002;8.472;2023-02-01T03:54:12;6.20;99.90
14735;DHT22;7458;49.002;8.472;2023-02-01T03:56:43;6.40;99.90
14735;DHT22;7458;49.002;8.472;2023-02-01T03:59:12;6.40;99.90
14735;DHT22;7458;49.002;8.472;2023-02-01T04:01:39;6.40;99.90
14735;DHT22;7458;49.002;8.472;2023-02-01T04:04:05;6.40;99.90
14735;DHT22;7458;49.002;8.472;2023-02-01T04:06:31;6.40;99.90
14735;DHT22;7458;49.002;8.472;2023-02-01T04:08:59;6.40;99.90
14735;DHT22;7458;49.002;8.472;2023-02-01T04:11:25;6.40;99.90
14735;DHT22;7458;49.002;8.472;2023-02-01T04:13:53;6.40;99.90
14735;DHT22;7458;49.002;8.472;2023-02-01T04:16:18;6.40;99.90
14735;DHT22;7458;49.002;8.472;2023-02-01T04:18:44;6.40;99.90
14735;DHT22;7458;49.002;8.472;2023-02-01T04:21:10;6.30;99.90
14735;DHT22;7458;49.002;8.472;2023-02-01T04:23:35;6.30;99.90
14735;DHT22;7458;49.002;8.472;2023-02-01T04:26:03;6.40;99.90
14735;DHT22;7458;49.002;8.472;2023-02-01T04:28:29;6.40;99.90
14735;DHT22;7458;49.002;8.472;2023-02-01T04:30:56;6.40;99.90
14735;DHT22;7458;49.002;8.472;2023-02-01T04:33:22;6.30;99.90
14735;DHT22;7458;49.002;8.472;2023-02-01T04:35:48;6.30;99.90
14735;DHT22;7458;49.002;8.472;2023-02-01T04:38:14;6.30;99.90
14735;DHT22;7458;49.002;8.472;2023-02-01T04:40:39;6.30;99.90
14735;DHT22;7458;49.002;8.472;2023-02-01T04:43:05;6.30;99.90
14735;DHT22;7458;49.002;8.472;2023-02-01T04:45:31;6.30;99.90
14735;DHT22;7458;49.002;8.472;2023-02-01T04:47:57;6.30;99.90
14735;DHT22;7458;49.002;8.472;2023-02-01T04:50:22;6.30;99.90
14735;DHT22;7458;49.002;8.472;2023-02-01T04:52:49;6.40;99.90
14735;DHT22;7458;49.002;8.472;2023-02-01T04:55:15;6.30;99.90
14735;DHT22;7458;49.002;8.472;2023-02-01T04:57:41;6.30;99.90
14735;DHT22;7458;49.002;8.472;2023-02-01T05:00:08;6.30;99.90
14735;DHT22;7458;49.002;8.472;2023-02-01T05:02:35;6.20;99.90
14735;DHT22;7458;49.002;8.472;2023-02-01T05:05:01;6.30;99.90
14735;DHT22;7458;49.002;8.472;2023-02-01T05:07:27;6.30;99.90
14735;DHT22;7458;49.002;8.472;2023-02-01T05:09:53;6.30;99.90
14735;DHT22;7458;49.002;8.472;2023-02-01T05:12:19;6.30;99.90
14735;DHT22;7458;49.002;8.472;2023-02-01T05:15:03;6.30;99.90
14735;DHT22;7458;49.002;8.472;2023-02-01T05:17:29;6.20;99.90
14735;DHT22;7458;49.002;8.472;2023-02-01T05:19:58;6.20;99.90
14735;DHT22;7458;49.002;8.472;2023-02-01T05:22:23;6.20;99.90
14735;DHT22;7458;49.002;8.472;2023-02-01T05:24:49;6.20;99.90
14735;DHT22;7458;49.002;8.472;2023-02-01T05:27:15;6.30;99.90
14735;DHT22;7458;49.002;8.472;2023-02-01T05:29:40;6.20;99.90
14735;DHT22;7458;49.002;8.472;2023-02-01T05:32:06;6.20;99.90
14735;DHT22;7458;49.002;8.472;2023-02-01T05:34:32;6.20;99.90
14735;DHT22;7458;49.002;8.472;2023-02-01T05:36:57;6.10;99.90
14735;DHT22;7458;49.002;8.472;2023-02-01T05:39:23;6.20;99.90
14735;DHT22;7458;49.002;8.472;2023-02-01T05:41:49;6.20;99.90
14735;DHT22;7458;49.002;8.472;2023-02-01T05:44:14;6.20;99.90
14735;DHT22;7458;49.002;8.472;2023-02-01T05:46:40;3.90;99.90
14735;DHT22;7458;49.002;8.472;2023-02-01T05:49:06;6.20;99.90
14735;DHT22;7458;49.002;8.472;2023-02-01T05:51:33;6.20;99.90
14735;DHT22;7458;49.002;8.472;2023-02-01T05:53:59;6.20;99.90
14735;DHT22;7458;49.002;8.472;2023-02-01T05:56:24;6.20;99.90
14735;DHT22;7458;49.002;8.472;2023-02-01T05:58:51;6.30;99.90
14735;DHT22;7458;49.002;8.472;2023-02-01T06:01:17;6.20;99.90
14735;DHT22;7458;49.002;8.472;2023-02-01T06:03:43;6.30;99.90
14735;DHT22;7458;49.002;8.472;2023-02-01T06:06:08;6.30;99.90
14735;DHT22;7458;49.002;8.472;2023-02-01T06:08:34;6.30;99.90
14735;DHT22;7458;49.002;8.472;2023-02-01T06:11:04;6.30;99.90
14735;DHT22;7458;49.002;8.472;2023-02-01T06:13:31;6.50;99.90
14735;DHT22;7458;49.002;8.472;2023-02-01T06:15:57;6.50;99.90
14735;DHT22;7458;49.002;8.472;2023-02-01T06:18:24;6.50;99.90
14735;DHT22;7458;49.002;8.472;2023-02-01T06:20:57;6.50;99.90
14735;DHT22;7458;49.002;8.472;2023-02-01T06:23:28;6.50;99.90
14735;DHT22;7458;49.002;8.472;2023-02-01T06:26:03;6.40;99.90
14735;DHT22;7458;49.002;8.472;2023-02-01T06:28:31;6.40;99.90
14735;DHT22;7458;49.002;8.472;2023-02-01T06:31:05;6.50;99.90
14735;DHT22;7458;49.002;8.472;2023-02-01T06:33:35;6.40;99.90
14735;DHT22;7458;49.002;8.472;2023-02-01T06:36:04;6.40;99.90
14735;DHT22;7458;49.002;8.472;2023-02-01T06:38:34;6.40;99.90
14735;DHT22;7458;49.002;8.472;2023-02-01T06:41:00;6.50;99.90
14735;DHT22;7458;49.002;8.472;2023-02-01T06:43:27;6.50;99.90
14735;DHT22;7458;49.002;8.472;2023-02-01T06:45:58;6.50;99.90
14735;DHT22;7458;49.002;8.472;2023-02-01T06:48:28;6.50;99.90
14735;DHT22;7458;49.002;8.472;2023-02-01T06:50:54;6.50;99.90
14735;DHT22;7458;49.002;8.472;2023-02-01T06:53:20;6.50;99.90
14735;DHT22;7458;49.002;8.472;2023-02-01T06:55:53;6.50;99.90
14735;DHT22;7458;49.002;8.472;2023-02-01T06:58:20;6.50;99.90
14735;DHT22;7458;49.002;8.472;2023-02-01T07:00:46;7.10;99.90
14735;DHT22;7458;49.002;8.472;2023-02-01T07:03:12;6.50;99.90
14735;DHT22;7458;49.002;8.472;2023-02-01T07:05:38;6.60;99.90
14735;DHT22;7458;49.002;8.472;2023-02-01T07:08:04;6.60;99.90
14735;DHT22;7458;49.002;8.472;2023-02-01T07:10:29;6.50;99.90
14735;DHT22;7458;49.002;8.472;2023-02-01T07:12:58;6.50;99.90
14735;DHT22;7458;49.002;8.472;2023-02-01T07:15:25;6.50;99.90
14735;DHT22;7458;49.002;8.472;2023-02-01T07:17:50;6.40;99.90
14735;DHT22;7458;49.002;8.472;2023-02-01T07:20:16;6.30;99.90
14735;DHT22;7458;49.002;8.472;2023-02-01T07:22:42;6.30;99.90
14735;DHT22;7458;49.002;8.472;2023-02-01T07:25:11;6.20;99.90
14735;DHT22;7458;49.002;8.472;2023-02-01T07:27:37;6.10;99.90
14735;DHT22;7458;49.002;8.472;2023-02-01T07:30:06;6.40;99.90
14735;DHT22;7458;49.002;8.472;2023-02-01T07:32:33;6.00;99.90
14735;DHT22;7458;49.002;8.472;2023-02-01T07:34:59;6.00;99.90
14735;DHT22;7458;49.002;8.472;2023-02-01T07:37:25;6.00;99.90
14735;DHT22;7458;49.002;8.472;2023-02-01T07:39:51;5.90;99.90
14735;DHT22;7458;49.002;8.472;2023-02-01T07:42:17;5.90;99.90
14735;DHT22;7458;49.002;8.472;2023-02-01T07:44:43;6.00;99.90
14735;DHT22;7458;49.002;8.472;2023-02-01T07:47:09;6.30;99.90
14735;DHT22;7458;49.002;8.472;2023-02-01T07:49:34;6.00;99.90
14735;DHT22;7458;49.002;8.472;2023-02-01T07:52:00;6.00;99.90
14735;DHT22;7458;49.002;8.472;2023-02-01T07:54:29;6.00;99.90
14735;DHT22;7458;49.002;8.472;2023-02-01T07:56:56;6.00;99.90
14735;DHT22;7458;49.002;8.472;2023-02-01T07:59:21;6.10;99.90
14735;DHT22;7458;49.002;8.472;2023-02-01T08:01:47;6.10;99.90
14735;DHT22;7458;49.002;8.472;2023-02-01T08:04:13;6.10;99.90
14735;DHT22;7458;49.002;8.472;2023-02-01T08:06:39;6.00;99.90
14735;DHT22;7458;49.002;8.472;2023-02-01T08:09:06;6.10;99.90
14735;DHT22;7458;49.002;8.472;2023-02-01T08:11:36;6.10;99.90
14735;DHT22;7458;49.002;8.472;2023-02-01T08:14:03;6.20;99.90
14735;DHT22;7458;49.002;8.472;2023-02-01T08:16:30;6.30;99.90
14735;DHT22;7458;49.002;8.472;2023-02-01T08:18:56;6.40;99.90
14735;DHT22;7458;49.002;8.472;2023-02-01T08:21:25;6.50;99.90
14735;DHT22;7458;49.002;8.472;2023-02-01T08:24:08;6.60;99.90
14735;DHT22;7458;49.002;8.472;2023-02-01T08:26:35;6.70;99.90
14735;DHT22;7458;49.002;8.472;2023-02-01T08:29:02;6.70;99.90
14735;DHT22;7458;49.002;8.472;2023-02-01T08:31:31;6.70;99.90
14735;DHT22;7458;49.002;8.472;2023-02-01T08:33:59;6.60;99.90
14735;DHT22;7458;49.002;8.472;2023-02-01T08:36:30;6.70;99.90
14735;DHT22;7458;49.002;8.472;2023-02-01T08:38:57;6.70;99.90
14735;DHT22;7458;49.002;8.472;2023-02-01T08:41:26;6.70;99.90
14735;DHT22;7458;49.002;8.472;2023-02-01T08:43:55;6.70;99.90
14735;DHT22;7458;49.002;8.472;2023-02-01T08:46:22;6.60;99.90
14735;DHT22;7458;49.002;8.472;2023-02-01T08:48:49;6.50;99.90
14735;DHT22;7458;49.002;8.472;2023-02-01T08:51:17;6.50;99.90
14735;DHT22;7458;49.002;8.472;2023-02-01T08:53:44;6.50;99.90
14735;DHT22;7458;49.002;8.472;2023-02-01T08:56:12;6.70;99.90
14735;DHT22;7458;49.002;8.472;2023-02-01T08:58:40;6.60;99.90
14735;DHT22;7458;49.002;8.472;2023-02-01T09:01:07;6.70;99.90
14735;DHT22;7458;49.002;8.472;2023-02-01T09:03:34;6.60;99.90
14735;DHT22;7458;49.002;8.472;2023-02-01T09:06:05;6.60;99.90
14735;DHT22;7458;49.002;8.472;2023-02-01T09:08:33;6.60;99.90
14735;DHT22;7458;49.002;8.472;2023-02-01T09:11:06;6.70;99.90
14735;DHT22;7458;49.002;8.472;2023-02-01T09:13:35;6.80;99.90
14735;DHT22;7458;49.002;8.472;2023-02-01T09:16:02;6.90;99.90
14735;DHT22;7458;49.002;8.472;2023-02-01T09:18:29;7.10;99.90
14735;DHT22;7458;49.002;8.472;2023-02-01T09:20:55;9.50;99.90
14735;DHT22;7458;49.002;8.472;2023-02-01T09:23:21;7.30;99.90
14735;DHT22;7458;49.002;8.472;2023-02-01T09:25:47;7.30;99.90
14735;DHT22;7458;49.002;8.472;2023-02-01T09:28:15;7.30;99.90
14735;DHT22;7458;49.002;8.472;2023-02-01T09:30:42;7.30;99.90
14735;DHT22;7458;49.002;8.472;2023-02-01T09:33:07;7.40;99.90
14735;DHT22;7458;49.002;8.472;2023-02-01T09:35:33;7.40;99.90
14735;DHT22;7458;49.002;8.472;2023-02-01T09:37:59;7.40;99.90
14735;DHT22;7458;49.002;8.472;2023-02-01T09:40:25;7.50;99.90
14735;DHT22;7458;49.002;8.472;2023-02-01T09:43:21;7.60;99.90
14735;DHT22;7458;49.002;8.472;2023-02-01T09:46:27;7.60;99.90
14735;DHT22;7458;49.002;8.472;2023-02-01T09:48:57;7.60;99.90
14735;DHT22;7458;49.002;8.472;2023-02-01T09:51:51;7.50;99.90
14735;DHT22;7458;49.002;8.472;2023-02-01T09:54:24;7.40;99.90
14735;DHT22;7458;49.002;8.472;2023-02-01T09:57:08;7.30;99.90
14735;DHT22;7458;49.002;8.472;2023-02-01T09:59:46;7.30;99.90
14735;DHT22;7458;49.002;8.472;2023-02-01T10:02:19;7.30;99.90
14735;DHT22;7458;49.002;8.472;2023-02-01T10:04:47;7.30;99.90
14735;DHT22;7458;49.002;8.472;2023-02-01T10:10:55;7.30;99.90
14735;DHT22;7458;49.002;8.472;2023-02-01T10:16:55;7.30;99.90
14735;DHT22;7458;49.002;8.472;2023-02-01T10:22:45;7.30;99.90
14735;DHT22;7458;49.002;8.472;2023-02-01T10:28:16;7.30;99.90
14735;DHT22;7458;49.002;8.472;2023-02-01T10:30:45;7.40;99.90
14735;DHT22;7458;49.002;8.472;2023-02-01T10:33:24;7.40;99.90
14735;DHT22;7458;49.002;8.472;2023-02-01T10:36:08;7.50;99.90
14735;DHT22;7458;49.002;8.472;2023-02-01T10:38:43;7.60;99.90
14735;DHT22;7458;49.002;8.472;2023-02-01T10:41:15;6.50;99.90
14735;DHT22;7458;49.002;8.472;2023-02-01T10:43:45;8.80;99.90
14735;DHT22;7458;49.002;8.472;2023-02-01T10:46:16;7.70;99.90
14735;DHT22;7458;49.002;8.472;2023-02-01T10:48:43;7.70;99.90
14735;DHT22;7458;49.002;8.472;2023-02-01T10:51:23;7.70;99.90
14735;DHT22;7458;49.002;8.472;2023-02-01T10:54:02;7.70;99.90
14735;DHT22;7458;49.002;8.472;2023-02-01T10:56:37;7.70;99.90
14735;DHT22;7458;49.002;8.472;2023-02-01T10:59:05;7.70;99.90
14735;DHT22;7458;49.002;8.472;2023-02-01T11:01:42;7.70;99.90
14735;DHT22;7458;49.002;8.472;2023-02-01T11:04:15;7.70;99.90
14735;DHT22;7458;49.002;8.472;2023-02-01T11:06:45;7.70;99.90
14735;DHT22;7458;49.002;8.472;2023-02-01T11:09:24;7.80;99.90
14735;DHT22;7458;49.002;8.472;2023-02-01T11:14:26;7.60;99.90
14735;DHT22;7458;49.002;8.472;2023-02-01T11:16:58;7.70;99.90
14735;DHT22;7458;49.002;8.472;2023-02-01T11:19:27;8.10;99.90
14735;DHT22;7458;49.002;8.472;2023-02-01T11:21:55;8.00;99.90
14735;DHT22;7458;49.002;8.472;2023-02-01T11:27:00;7.90;99.90
14735;DHT22;7458;49.002;8.472;2023-02-01T11:29:36;7.80;99.90
14735;DHT22;7458;49.002;8.472;2023-02-01T11:32:05;7.80;99.90
14735;DHT22;7458;49.002;8.472;2023-02-01T11:37:23;7.90;99.90
14735;DHT22;7458;49.002;8.472;2023-02-01T11:39:58;7.80;99.90
14735;DHT22;7458;49.002;8.472;2023-02-01T11:42:27;7.80;99.90
14735;DHT22;7458;49.002;8.472;2023-02-01T11:45:16;7.80;99.90
14735;DHT22;7458;49.002;8.472;2023-02-01T11:47:46;7.80;99.90
14735;DHT22;7458;49.002;8.472;2023-02-01T11:50:22;7.70;99.90
14735;DHT22;7458;49.002;8.472;2023-02-01T11:56:08;7.60;99.90
14735;DHT22;7458;49.002;8.472;2023-02-01T12:13:46;7.80;99.90
14735;DHT22;7458;49.002;8.472;2023-02-01T12:16:35;7.90;99.90
14735;DHT22;7458;49.002;8.472;2023-02-01T12:19:16;7.90;99.90
14735;DHT22;7458;49.002;8.472;2023-02-01T12:21:54;7.80;99.90
14735;DHT22;7458;49.002;8.472;2023-02-01T12:27:49;7.80;99.90
14735;DHT22;7458;49.002;8.472;2023-02-01T12:41:23;8.10;99.90
14735;DHT22;7458;49.002;8.472;2023-02-01T12:47:18;8.10;99.90
14735;DHT22;7458;49.002;8.472;2023-02-01T12:52:53;8.00;99.90
14735;DHT22;7458;49.002;8.472;2023-02-01T12:55:34;7.90;99.90
14735;DHT22;7458;49.002;8.472;2023-02-01T12:58:07;7.90;99.90
14735;DHT22;7458;49.002;8.472;2023-02-01T13:01:00;7.90;99.90
14735;DHT22;7458;49.002;8.472;2023-02-01T13:03:50;7.90;99.90
14735;DHT22;7458;49.002;8.472;2023-02-01T13:12:14;7.90;99.90
14735;DHT22;7458;49.002;8.472;2023-02-01T13:17:39;7.80;99.90
14735;DHT22;7458;49.002;8.472;2023-02-01T13:20:23;7.80;99.90
14735;DHT22;7458;49.002;8.472;2023-02-01T13:25:38;7.80;99.90
14735;DHT22;7458;49.002;8.472;2023-02-01T13:28:20;7.80;99.90
14735;DHT22;7458;49.002;8.472;2023-02-01T13:31:47;7.80;99.90
14735;DHT22;7458;49.002;8.472;2023-02-01T13:37:33;7.80;99.90
14735;DHT22;7458;49.002;8.472;2023-02-01T13:43:36;7.90;99.90
14735;DHT22;7458;49.002;8.472;2023-02-01T13:46:09;7.80;99.90
14735;DHT22;7458;49.002;8.472;2023-02-01T13:49:01;7.80;99.90
14735;DHT22;7458;49.002;8.472;2023-02-01T13:51:49;7.90;99.90
14735;DHT22;7458;49.002;8.472;2023-02-01T13:57:05;7.90;99.90
14735;DHT22;7458;49.002;8.472;2023-02-01T13:59:52;7.90;99.90
14735;DHT22;7458;49.002;8.472;2023-02-01T14:26:50;8.20;99.90
14735;DHT22;7458;49.002;8.472;2023-02-01T14:29:25;8.20;99.90
14735;DHT22;7458;49.002;8.472;2023-02-01T15:01:18;8.30;99.90
14735;DHT22;7458;49.002;8.472;2023-02-01T15:06:40;8.30;99.90
14735;DHT22;7458;49.002;8.472;2023-02-01T15:09:25;8.30;99.90
14735;DHT22;7458;49.002;8.472;2023-02-01T15:12:01;8.30;99.90
14735;DHT22;7458;49.002;8.472;2023-02-01T15:14:36;8.30;99.90
14735;DHT22;7458;49.002;8.472;2023-02-01T15:17:23;8.20;99.90
14735;DHT22;7458;49.002;8.472;2023-02-01T15:20:04;8.20;99.90
14735;DHT22;7458;49.002;8.472;2023-02-01T15:22:37;8.20;99.90
14735;DHT22;7458;49.002;8.472;2023-02-01T15:25:03;8.20;99.90
14735;DHT22;7458;49.002;8.472;2023-02-01T15:27:30;8.20;99.90
14735;DHT22;7458;49.002;8.472;2023-02-01T15:30:23;8.20;99.90
14735;DHT22;7458;49.002;8.472;2023-02-01T15:33:07;8.20;99.90
14735;DHT22;7458;49.002;8.472;2023-02-01T15:40:59;8.10;99.90
14735;DHT22;7458;49.002;8.472;2023-02-01T15:43:26;8.20;99.90
14735;DHT22;7458;49.002;8.472;2023-02-01T15:45:58;8.20;99.90
14735;DHT22;7458;49.002;8.472;2023-02-01T15:48:29;8.20;99.90
14735;DHT22;7458;49.002;8.472;2023-02-01T15:51:00;8.20;99.90
14735;DHT22;7458;49.002;8.472;2023-02-01T15:53:27;8.20;99.90
14735;DHT22;7458;49.002;8.472;2023-02-01T15:56:01;8.20;99.90
14735;DHT22;7458;49.002;8.472;2023-02-01T15:58:30;8.20;99.90
14735;DHT22;7458;49.002;8.472;2023-02-01T16:01:03;8.20;99.90
14735;DHT22;7458;49.002;8.472;2023-02-01T16:03:38;8.20;99.90
14735;DHT22;7458;49.002;8.472;2023-02-01T16:08:49;8.20;99.90
14735;DHT22;7458;49.002;8.472;2023-02-01T16:11:29;8.20;99.90
14735;DHT22;7458;49.002;8.472;2023-02-01T16:13:58;8.30;99.90
14735;DHT22;7458;49.002;8.472;2023-02-01T16:16:27;8.20;99.90
14735;DHT22;7458;49.002;8.472;2023-02-01T16:18:53;8.10;99.90
14735;DHT22;7458;49.002;8.472;2023-02-01T16:21:19;8.10;99.90
14735;DHT22;7458;49.002;8.472;2023-02-01T16:23:52;8.10;99.90
14735;DHT22;7458;49.002;8.472;2023-02-01T16:26:19;8.00;99.90
14735;DHT22;7458;49.002;8.472;2023-02-01T16:28:46;8.10;99.90
14735;DHT22;7458;49.002;8.472;2023-02-01T16:31:15;8.10;99.90
14735;DHT22;7458;49.002;8.472;2023-02-01T16:33:49;8.10;99.90
14735;DHT22;7458;49.002;8.472;2023-02-01T16:36:16;8.00;99.90
14735;DHT22;7458;49.002;8.472;2023-02-01T16:38:44;8.00;99.90
14735;DHT22;7458;49.002;8.472;2023-02-01T16:41:19;8.00;99.90
14735;DHT22;7458;49.002;8.472;2023-02-01T16:43:50;8.00;99.90
14735;DHT22;7458;49.002;8.472;2023-02-01T16:46:22;8.00;99.90
14735;DHT22;7458;49.002;8.472;2023-02-01T16:48:56;8.10;99.90
14735;DHT22;7458;49.002;8.472;2023-02-01T16:51:26;8.10;99.90
14735;DHT22;7458;49.002;8.472;2023-02-01T16:53:54;8.00;99.90
14735;DHT22;7458;49.002;8.472;2023-02-01T16:56:30;8.00;99.90
14735;DHT22;7458;49.002;8.472;2023-02-01T16:58:58;8.10;99.90
14735;DHT22;7458;49.002;8.472;2023-02-01T17:01:24;6.90;99.90
14735;DHT22;7458;49.002;8.472;2023-02-01T17:03:51;8.10;99.90
14735;DHT22;7458;49.002;8.472;2023-02-01T17:06:22;8.10;99.90
14735;DHT22;7458;49.002;8.472;2023-02-01T17:08:52;8.10;99.90
14735;DHT22;7458;49.002;8.472;2023-02-01T17:11:20;8.10;99.90
14735;DHT22;7458;49.002;8.472;2023-02-01T17:13:47;8.00;99.90
14735;DHT22;7458;49.002;8.472;2023-02-01T17:16:22;8.10;99.90
14735;DHT22;7458;49.002;8.472;2023-02-01T17:18:58;8.00;99.90
14735;DHT22;7458;49.002;8.472;2023-02-01T17:21:30;8.10;99.90
14735;DHT22;7458;49.002;8.472;2023-02-01T17:24:05;8.10;99.90
14735;DHT22;7458;49.002;8.472;2023-02-01T17:26:31;8.10;99.90
14735;DHT22;7458;49.002;8.472;2023-02-01T17:28:57;8.00;99.90
14735;DHT22;7458;49.002;8.472;2023-02-01T17:31:22;8.00;99.90
14735;DHT22;7458;49.002;8.472;2023-02-01T17:33:48;8.00;99.90
14735;DHT22;7458;49.002;8.472;2023-02-01T17:36:16;7.90;99.90
14735;DHT22;7458;49.002;8.472;2023-02-01T17:38:43;7.90;99.90
14735;DHT22;7458;49.002;8.472;2023-02-01T17:41:10;7.90;99.90
14735;DHT22;7458;49.002;8.472;2023-02-01T17:43:36;7.90;99.90
14735;DHT22;7458;49.002;8.472;2023-02-01T17:46:09;7.90;99.90
14735;DHT22;7458;49.002;8.472;2023-02-01T17:48:35;7.90;99.90
14735;DHT22;7458;49.002;8.472;2023-02-01T17:51:02;7.90;99.90
14735;DHT22;7458;49.002;8.472;2023-02-01T17:53:29;7.90;99.90
14735;DHT22;7458;49.002;8.472;2023-02-01T17:55:55;7.90;99.90
14735;DHT22;7458;49.002;8.472;2023-02-01T17:58:25;7.90;99.90
14735;DHT22;7458;49.002;8.472;2023-02-01T18:00:51;7.90;99.90
14735;DHT22;7458;49.002;8.472;2023-02-01T18:03:28;7.90;99.90
14735;DHT22;7458;49.002;8.472;2023-02-01T18:05:57;7.80;99.90
14735;DHT22;7458;49.002;8.472;2023-02-01T18:08:26;7.80;99.90
14735;DHT22;7458;49.002;8.472;2023-02-01T18:10:59;7.80;99.90
14735;DHT22;7458;49.002;8.472;2023-02-01T18:13:27;7.80;99.90
14735;DHT22;7458;49.002;8.472;2023-02-01T18:15:53;7.90;99.90
14735;DHT22;7458;49.002;8.472;2023-02-01T18:18:20;7.90;99.90
14735;DHT22;7458;49.002;8.472;2023-02-01T18:20:47;7.90;99.90
14735;DHT22;7458;49.002;8.472;2023-02-01T18:23:21;7.90;99.90
14735;DHT22;7458;49.002;8.472;2023-02-01T18:25:49;7.90;99.90
14735;DHT22;7458;49.002;8.472;2023-02-01T18:28:18;7.90;99.90
14735;DHT22;7458;49.002;8.472;2023-02-01T18:30:46;7.90;99.90
14735;DHT22;7458;49.002;8.472;2023-02-01T18:33:16;7.90;99.90
14735;DHT22;7458;49.002;8.472;2023-02-01T18:35:45;8.00;99.90
14735;DHT22;7458;49.002;8.472;2023-02-01T18:38:11;7.90;99.90
14735;DHT22;7458;49.002;8.472;2023-02-01T18:43:20;8.00;99.90
14735;DHT22;7458;49.002;8.472;2023-02-01T18:45:47;8.00;99.90
14735;DHT22;7458;49.002;8.472;2023-02-01T18:48:14;8.00;99.90
14735;DHT22;7458;49.002;8.472;2023-02-01T18:50:43;8.00;99.90
14735;DHT22;7458;49.002;8.472;2023-02-01T18:53:15;8.00;99.90
14735;DHT22;7458;49.002;8.472;2023-02-01T18:55:46;8.00;99.90
14735;DHT22;7458;49.002;8.472;2023-02-01T18:58:14;8.00;99.90
14735;DHT22;7458;49.002;8.472;2023-02-01T19:00:43;7.90;99.90
14735;DHT22;7458;49.002;8.472;2023-02-01T19:03:14;8.00;99.90
14735;DHT22;7458;49.002;8.472;2023-02-01T19:05:41;8.10;99.90
14735;DHT22;7458;49.002;8.472;2023-02-01T19:08:07;8.00;99.90
14735;DHT22;7458;49.002;8.472;2023-02-01T19:10:36;8.10;99.90
14735;DHT22;7458;49.002;8.472;2023-02-01T19:13:03;8.10;99.90
14735;DHT22;7458;49.002;8.472;2023-02-01T19:15:32;8.10;99.90
14735;DHT22;7458;49.002;8.472;2023-02-01T19:18:00;9.80;99.90
14735;DHT22;7458;49.002;8.472;2023-02-01T19:20:26;8.10;99.90
14735;DHT22;7458;49.002;8.472;2023-02-01T19:22:52;8.10;99.90
14735;DHT22;7458;49.002;8.472;2023-02-01T19:25:24;8.00;99.90
14735;DHT22;7458;49.002;8.472;2023-02-01T19:27:54;8.20;99.90